createdAt,value
2022-08-19T00:01:45.549Z,99352.41
2022-08-19T00:04:25.359Z,99351.63
2022-08-19T00:06:52.714Z,99358.94
2022-08-19T00:09:21.630Z,99357.00
2022-08-19T00:11:48.801Z,99351.06
2022-08-19T00:14:17.479Z,99356.09
2022-08-19T00:16:46.499Z,99352.63
2022-08-19T00:19:13.622Z,99349.62
2022-08-19T00:21:40.818Z,99358.75
2022-08-19T00:24:13.099Z,99364.75
2022-08-19T00:26:40.593Z,99360.09
2022-08-19T00:29:08.946Z,99360.16
2022-08-19T00:31:35.645Z,99357.69
2022-08-19T00:34:02.540Z,99359.59
2022-08-19T00:36:29.964Z,99355.41
2022-08-19T00:38:57.126Z,99353.72
2022-08-19T00:41:25.306Z,99354.22
2022-08-19T00:44:00.569Z,99360.97
2022-08-19T00:46:28.496Z,99356.16
2022-08-19T00:48:57.650Z,99353.47
2022-08-19T00:51:27.569Z,99353.97
2022-08-19T00:53:58.038Z,99342.53
2022-08-19T00:56:25.627Z,99343.66
2022-08-19T00:58:52.418Z,99339.72
2022-08-19T01:01:19.094Z,99347.28
2022-08-19T01:03:57.104Z,99343.22
2022-08-19T01:06:27.719Z,99352.03
2022-08-19T01:08:56.107Z,99337.09
2022-08-19T01:11:22.949Z,99342.12
2022-08-19T01:13:50.733Z,99341.28
2022-08-19T01:16:19.967Z,99348.66
2022-08-19T01:18:46.781Z,99348.38
2022-08-19T01:24:52.788Z,99342.84
2022-08-19T01:27:22.267Z,99340.31
2022-08-19T01:29:49.074Z,99344.16
2022-08-19T01:32:32.053Z,99346.75
2022-08-19T01:35:02.962Z,99341.19
2022-08-19T01:37:31.709Z,99333.31
2022-08-19T01:39:58.630Z,99319.09
2022-08-19T01:42:30.151Z,99333.25
2022-08-19T01:44:57.890Z,99336.47
2022-08-19T01:47:24.510Z,99333.94
2022-08-19T01:49:51.105Z,99326.03
2022-08-19T01:52:17.771Z,99324.75
2022-08-19T01:54:44.397Z,99312.91
2022-08-19T01:57:14.931Z,99303.62
2022-08-19T01:59:43.832Z,99305.53
2022-08-19T02:02:10.683Z,99298.22
2022-08-19T02:04:41.437Z,99298.81
2022-08-19T02:07:09.294Z,99291.16
2022-08-19T02:09:36.726Z,99289.88
2022-08-19T02:12:04.521Z,99291.66
2022-08-19T02:14:31.199Z,99285.09
2022-08-19T02:16:57.786Z,99293.28
2022-08-19T02:19:24.374Z,99282.31
2022-08-19T02:21:51.055Z,99286.63
2022-08-19T02:24:36.079Z,99286.66
2022-08-19T02:27:02.734Z,99278.53
2022-08-19T02:29:29.425Z,99284.91
2022-08-19T02:31:57.484Z,99277.00
2022-08-19T02:34:25.904Z,99284.53
2022-08-19T02:36:53.962Z,99276.91
2022-08-19T02:39:20.618Z,99280.78
2022-08-19T02:42:06.788Z,99290.13
2022-08-19T02:44:43.273Z,99290.25
2022-08-19T02:47:10.967Z,99292.94
2022-08-19T02:49:37.766Z,99289.56
2022-08-19T02:52:04.465Z,99303.41
2022-08-19T02:54:31.337Z,99291.59
2022-08-19T02:56:58.021Z,99294.09
2022-08-19T02:59:25.774Z,99308.06
2022-08-19T03:01:52.387Z,99309.09
2022-08-19T03:04:20.489Z,99318.19
2022-08-19T03:06:48.286Z,99306.91
2022-08-19T03:09:15.399Z,99310.38
2022-08-19T03:11:42.287Z,99311.81
2022-08-19T03:14:15.435Z,99314.94
2022-08-19T03:16:45.928Z,99314.44
2022-08-19T03:19:13.629Z,99322.13
2022-08-19T03:21:40.655Z,99329.00
2022-08-19T03:24:09.654Z,99330.94
2022-08-19T03:26:40.599Z,99331.34
2022-08-19T03:29:15.459Z,99326.06
2022-08-19T03:32:32.845Z,99330.56
2022-08-19T03:35:09.169Z,99330.94
2022-08-19T03:37:35.981Z,99329.38
2022-08-19T03:40:05.023Z,99332.81
2022-08-19T03:42:45.485Z,99334.19
2022-08-19T03:45:15.750Z,99337.69
2022-08-19T03:47:42.369Z,99340.38
2022-08-19T03:50:14.259Z,99349.62
2022-08-19T03:52:40.922Z,99345.25
2022-08-19T03:55:12.377Z,99355.69
2022-08-19T03:57:38.961Z,99355.59
2022-08-19T04:00:13.499Z,99347.59
2022-08-19T04:02:42.949Z,99345.19
2022-08-19T04:05:54.899Z,99344.19
2022-08-19T04:08:27.979Z,99358.88
2022-08-19T04:10:55.089Z,99352.41
2022-08-19T04:13:22.388Z,99360.47
2022-08-19T04:15:49.037Z,99364.84
2022-08-19T04:18:15.691Z,99363.63
2022-08-19T04:20:47.705Z,99370.50
2022-08-19T04:23:16.182Z,99367.63
2022-08-19T04:25:44.761Z,99362.16
2022-08-19T04:28:13.438Z,99362.53
2022-08-19T04:30:45.398Z,99367.34
2022-08-19T04:33:14.204Z,99380.06
2022-08-19T04:35:42.910Z,99372.16
2022-08-19T04:38:23.428Z,99377.66
2022-08-19T04:41:46.106Z,99379.75
2022-08-19T04:44:14.786Z,99379.62
2022-08-19T04:46:50.890Z,99384.44
2022-08-19T04:49:21.087Z,99376.97
2022-08-19T04:51:48.760Z,99370.50
2022-08-19T04:54:28.795Z,99375.69
2022-08-19T04:57:04.564Z,99382.47
2022-08-19T04:59:31.230Z,99383.59
2022-08-19T05:01:57.818Z,99393.63
2022-08-19T05:04:24.424Z,99392.09
2022-08-19T05:06:51.655Z,99396.91
2022-08-19T05:09:18.596Z,99386.38
2022-08-19T05:11:45.759Z,99391.63
2022-08-19T05:14:13.887Z,99394.78
2022-08-19T05:16:41.818Z,99393.63
2022-08-19T05:19:27.445Z,99386.50
2022-08-19T05:22:13.427Z,99387.62
2022-08-19T05:24:56.407Z,99388.03
2022-08-19T05:27:34.908Z,99385.72
2022-08-19T05:30:02.563Z,99382.94
2022-08-19T05:32:29.379Z,99384.03
2022-08-19T05:34:56.429Z,99390.03
2022-08-19T05:37:23.334Z,99386.44
2022-08-19T05:39:51.681Z,99392.09
2022-08-19T05:42:19.885Z,99396.78
2022-08-19T05:44:58.958Z,99394.03
2022-08-19T05:47:44.049Z,99385.34
2022-08-19T05:50:10.770Z,99386.16
2022-08-19T05:52:39.328Z,99376.97
2022-08-19T05:55:12.774Z,99392.00
2022-08-19T05:57:40.323Z,99393.06
2022-08-19T06:00:12.220Z,99392.38
2022-08-19T06:02:39.466Z,99393.63
2022-08-19T06:05:09.898Z,99390.63
2022-08-19T06:07:38.290Z,99390.03
2022-08-19T06:10:08.282Z,99389.91
2022-08-19T06:12:35.953Z,99395.59
2022-08-19T06:15:12.118Z,99388.66
2022-08-19T06:17:39.141Z,99392.22
2022-08-19T06:20:09.784Z,99387.59
2022-08-19T06:22:44.798Z,99387.19
2022-08-19T06:25:14.048Z,99382.41
2022-08-19T06:27:58.684Z,99388.12
2022-08-19T06:30:28.686Z,99376.66
2022-08-19T06:32:55.293Z,99374.66
2022-08-19T06:35:22.030Z,99372.12
2022-08-19T06:37:48.855Z,99370.91
2022-08-19T06:40:15.600Z,99364.88
2022-08-19T06:42:43.265Z,99378.25
2022-08-19T06:45:21.506Z,99370.94
2022-08-19T06:47:55.310Z,99364.97
2022-08-19T06:50:26.275Z,99358.84
2022-08-19T06:52:53.373Z,99359.03
2022-08-19T06:55:21.087Z,99368.63
2022-08-19T06:57:54.253Z,99372.47
2022-08-19T07:00:21.508Z,99382.31
2022-08-19T07:02:53.285Z,99390.63
2022-08-19T07:05:24.448Z,99389.78
2022-08-19T07:07:51.283Z,99403.66
2022-08-19T07:10:18.736Z,99401.75
2022-08-19T07:12:45.745Z,99406.13
2022-08-19T07:15:12.987Z,99409.59
2022-08-19T07:17:42.221Z,99411.28
2022-08-19T07:20:10.372Z,99413.25
2022-08-19T07:22:41.049Z,99415.19
2022-08-19T07:25:10.423Z,99410.44
2022-08-19T07:27:39.531Z,99411.84
2022-08-19T07:30:12.040Z,99410.91
2022-08-19T07:32:39.395Z,99415.72
2022-08-19T07:35:07.151Z,99411.34
2022-08-19T07:37:34.767Z,99417.28
2022-08-19T07:40:02.467Z,99401.31
2022-08-19T07:42:31.723Z,99400.81
2022-08-19T07:44:59.805Z,99403.53
2022-08-19T07:47:58.578Z,99399.50
2022-08-19T07:50:15.203Z,99396.19
2022-08-19T07:52:41.942Z,99400.41
2022-08-19T07:55:39.842Z,99399.37
2022-08-19T07:57:58.017Z,99410.06
2022-08-19T08:00:25.023Z,99410.56
2022-08-19T08:02:55.205Z,99411.44
2022-08-19T08:05:44.050Z,99417.34
2022-08-19T08:08:32.033Z,99410.19
2022-08-19T08:11:01.768Z,99413.75
2022-08-19T08:13:29.093Z,99420.00
2022-08-19T08:15:57.035Z,99412.28
2022-08-19T08:18:27.580Z,99408.28
2022-08-19T08:20:55.946Z,99406.00
2022-08-19T08:23:23.299Z,99411.44
2022-08-19T08:25:50.630Z,99412.16
2022-08-19T08:28:18.580Z,99413.41
2022-08-19T08:30:48.472Z,99410.94
2022-08-19T08:33:33.070Z,99407.75
2022-08-19T08:36:00.085Z,99418.72
2022-08-19T08:38:26.704Z,99408.69
2022-08-19T08:41:07.394Z,99407.56
2022-08-19T08:43:44.106Z,99399.81
2022-08-19T08:46:31.493Z,99396.97
2022-08-19T08:49:08.438Z,99393.94
2022-08-19T08:51:44.189Z,99384.59
2022-08-19T08:54:16.481Z,99377.81
2022-08-19T08:56:45.899Z,99371.03
2022-08-19T08:59:33.377Z,99388.66
2022-08-19T09:02:01.052Z,99388.09
2022-08-19T09:04:29.148Z,99389.44
2022-08-19T09:07:01.421Z,99377.84
2022-08-19T09:09:49.677Z,99387.16
2022-08-19T09:12:39.951Z,99380.03
2022-08-19T09:15:13.030Z,99379.34
2022-08-19T09:17:39.802Z,99376.69
2022-08-19T09:20:26.106Z,99379.22
2022-08-19T09:22:53.101Z,99375.47
2022-08-19T09:25:26.653Z,99369.75
2022-08-19T09:28:05.510Z,99373.50
2022-08-19T09:30:40.239Z,99365.28
2022-08-19T09:33:07.436Z,99357.81
2022-08-19T09:35:50.149Z,99348.03
2022-08-19T09:38:20.131Z,99358.81
2022-08-19T09:40:46.802Z,99352.09
2022-08-19T09:43:13.667Z,99350.16
2022-08-19T09:45:40.851Z,99351.06
2022-08-19T09:48:07.573Z,99352.19
2022-08-19T09:50:51.270Z,99346.25
2022-08-19T09:53:19.292Z,99346.84
2022-08-19T09:55:46.039Z,99335.59
2022-08-19T09:58:12.950Z,99334.53
2022-08-19T10:00:40.170Z,99325.22
2022-08-19T10:03:07.093Z,99331.97
2022-08-19T10:05:54.627Z,99321.16
2022-08-19T10:08:27.471Z,99333.69
2022-08-19T10:10:55.898Z,99334.12
2022-08-19T10:13:25.981Z,99324.66
2022-08-19T10:15:58.043Z,99322.03
2022-08-19T10:18:26.405Z,99319.34
2022-08-19T10:21:02.421Z,99316.56
2022-08-19T10:23:30.605Z,99314.13
2022-08-19T10:26:06.240Z,99324.31
2022-08-19T10:28:40.085Z,99317.75
2022-08-19T10:31:13.751Z,99321.44
2022-08-19T10:33:53.325Z,99315.59
2022-08-19T10:36:23.636Z,99323.81
2022-08-19T10:38:56.703Z,99313.06
2022-08-19T10:41:26.895Z,99307.91
2022-08-19T10:44:04.336Z,99316.19
2022-08-19T10:46:34.902Z,99321.44
2022-08-19T10:49:03.185Z,99317.16
2022-08-19T10:51:48.783Z,99313.53
2022-08-19T10:54:17.096Z,99310.59
2022-08-19T10:56:57.703Z,99305.78
2022-08-19T10:59:35.317Z,99305.84
2022-08-19T11:02:05.401Z,99314.16
2022-08-19T11:04:32.982Z,99307.19
2022-08-19T11:06:59.868Z,99305.03
2022-08-19T11:09:34.053Z,99301.44
2022-08-19T11:12:03.053Z,99303.28
2022-08-19T11:14:33.970Z,99304.72
2022-08-19T11:17:02.068Z,99314.91
2022-08-19T11:19:28.744Z,99306.22
2022-08-19T11:21:57.606Z,99304.88
2022-08-19T11:24:28.508Z,99304.12
2022-08-19T11:27:01.196Z,99313.34
2022-08-19T11:29:28.892Z,99305.34
2022-08-19T11:31:56.039Z,99303.91
2022-08-19T11:34:26.273Z,99296.88
2022-08-19T11:36:59.473Z,99311.88
2022-08-19T11:39:29.337Z,99310.94
2022-08-19T11:41:57.155Z,99307.94
2022-08-19T11:44:23.861Z,99305.16
2022-08-19T11:47:14.596Z,99300.63
2022-08-19T11:49:41.207Z,99293.09
2022-08-19T11:52:08.519Z,99288.00
2022-08-19T11:54:35.155Z,99298.91
2022-08-19T11:57:04.615Z,99289.22
2022-08-19T11:59:31.361Z,99283.41
2022-08-19T12:01:59.380Z,99274.09
2022-08-19T12:04:57.160Z,99284.31
2022-08-19T12:07:34.170Z,99286.00
2022-08-19T12:10:01.668Z,99283.63
2022-08-19T12:12:30.405Z,99290.31
2022-08-19T12:14:59.241Z,99286.78
2022-08-19T12:17:27.950Z,99273.62
2022-08-19T12:19:54.982Z,99286.22
2022-08-19T12:22:22.362Z,99285.22
2022-08-19T12:24:51.208Z,99286.53
2022-08-19T12:27:32.320Z,99284.56
2022-08-19T12:30:06.332Z,99284.87
2022-08-19T12:32:33.556Z,99286.19
2022-08-19T12:35:00.217Z,99280.47
2022-08-19T12:37:26.867Z,99272.91
2022-08-19T12:39:53.552Z,99268.09
2022-08-19T12:42:20.450Z,99252.81
2022-08-19T12:44:47.037Z,99258.69
2022-08-19T12:47:18.230Z,99255.06
2022-08-19T12:49:53.407Z,99254.87
2022-08-19T12:52:23.518Z,99248.91
2022-08-19T12:54:53.680Z,99247.00
2022-08-19T12:57:22.257Z,99242.06
2022-08-19T12:59:55.730Z,99244.56
2022-08-19T13:02:23.468Z,99251.81
2022-08-19T13:04:50.083Z,99250.50
2022-08-19T13:07:16.689Z,99255.94
2022-08-19T13:09:43.648Z,99256.94
2022-08-19T13:12:13.978Z,99247.66
2022-08-19T13:14:41.531Z,99247.00
2022-08-19T13:17:09.255Z,99245.91
2022-08-19T13:19:38.009Z,99244.13
2022-08-19T13:22:04.716Z,99252.47
2022-08-19T13:24:41.949Z,99235.47
2022-08-19T13:27:12.007Z,99227.81
2022-08-19T13:29:59.428Z,99229.69
2022-08-19T13:32:44.878Z,99226.94
2022-08-19T13:35:16.559Z,99235.66
2022-08-19T13:37:43.913Z,99244.38
2022-08-19T13:40:20.043Z,99251.69
2022-08-19T13:42:48.796Z,99233.09
2022-08-19T13:45:20.937Z,99248.28
2022-08-19T13:47:49.778Z,99239.97
2022-08-19T13:50:19.649Z,99244.66
2022-08-19T13:52:48.376Z,99235.50
2022-08-19T13:55:16.475Z,99247.22
2022-08-19T13:57:53.921Z,99259.00
2022-08-19T14:00:22.230Z,99265.03
2022-08-19T14:02:52.553Z,99263.72
2022-08-19T14:05:19.909Z,99258.00
2022-08-19T14:07:46.676Z,99242.38
2022-08-19T14:10:14.177Z,99256.63
2022-08-19T14:12:41.215Z,99252.31
2022-08-19T14:15:10.614Z,99259.06
2022-08-19T14:17:41.552Z,99248.59
2022-08-19T14:20:11.372Z,99246.87
2022-08-19T14:25:26.038Z,99233.88
2022-08-19T14:27:53.212Z,99222.34
2022-08-19T14:30:28.570Z,99228.44
2022-08-19T14:35:31.332Z,99218.31
2022-08-19T14:37:58.974Z,99215.59
2022-08-19T14:40:28.847Z,99223.19
2022-08-19T14:43:05.211Z,99202.78
2022-08-19T14:48:18.982Z,99247.09
2022-08-19T14:50:46.795Z,99241.56
2022-08-19T14:53:13.592Z,99235.56
2022-08-19T14:55:44.465Z,99231.13
2022-08-19T14:58:29.042Z,99239.41
2022-08-19T15:03:35.554Z,99259.66
2022-08-19T15:06:04.949Z,99273.00
2022-08-19T15:08:33.456Z,99284.34
2022-08-19T15:11:00.469Z,99282.50
2022-08-19T15:13:29.890Z,99286.81
2022-08-19T15:15:58.065Z,99298.81
2022-08-19T15:18:25.090Z,99305.31
2022-08-19T15:20:51.981Z,99310.16
2022-08-19T15:23:24.370Z,99308.59
2022-08-19T15:25:55.733Z,99322.00
2022-08-19T15:28:25.378Z,99323.81
2022-08-19T15:30:53.063Z,99343.22
2022-08-19T15:33:21.175Z,99331.06
2022-08-19T15:35:50.958Z,99320.19
2022-08-19T15:38:46.180Z,99310.78
2022-08-19T15:41:25.043Z,99296.75
2022-08-19T15:43:56.023Z,99257.31
2022-08-19T15:46:25.769Z,99255.38
2022-08-19T15:48:55.957Z,99270.50
2022-08-19T15:51:24.032Z,99278.09
2022-08-19T15:53:51.504Z,99265.44
2022-08-19T15:56:18.138Z,99264.53
2022-08-19T15:59:03.713Z,99272.75
2022-08-19T16:01:49.063Z,99276.00
2022-08-19T16:04:34.952Z,99255.34
2022-08-19T16:07:03.429Z,99251.41
2022-08-19T16:09:31.792Z,99250.56
2022-08-19T16:12:02.423Z,99244.16
2022-08-19T16:14:31.814Z,99239.50
2022-08-19T16:16:58.519Z,99238.03
2022-08-19T16:19:25.706Z,99241.13
2022-08-19T16:21:54.134Z,99254.53
2022-08-19T16:24:23.614Z,99258.69
2022-08-19T16:26:55.252Z,99271.84
2022-08-19T16:29:34.683Z,99269.81
2022-08-19T16:32:12.885Z,99275.78
2022-08-19T16:34:41.509Z,99278.44
2022-08-19T16:37:09.636Z,99292.44
2022-08-19T16:39:37.160Z,99310.88
2022-08-19T16:42:14.070Z,99333.59
2022-08-19T16:44:54.581Z,99339.63
2022-08-19T16:47:24.266Z,99349.31
2022-08-19T16:49:53.708Z,99367.81
2022-08-19T16:52:27.029Z,99367.28
2022-08-19T16:54:54.607Z,99365.31
2022-08-19T16:57:23.793Z,99381.16
2022-08-19T16:59:52.340Z,99390.72
2022-08-19T17:02:22.479Z,99400.50
2022-08-19T17:04:55.729Z,99397.88
2022-08-19T17:07:24.496Z,99406.34
2022-08-19T17:09:51.083Z,99390.63
2022-08-19T17:12:17.718Z,99349.16
2022-08-19T17:14:46.084Z,99314.41
2022-08-19T17:17:12.886Z,99279.75
2022-08-19T17:19:41.892Z,99263.66
2022-08-19T17:22:10.210Z,99258.03
2022-08-19T17:24:38.416Z,99247.88
2022-08-19T17:27:08.134Z,99211.59
2022-08-19T17:29:34.914Z,99200.19
2022-08-19T17:32:02.304Z,99192.97
2022-08-19T17:34:28.991Z,99184.13
2022-08-19T17:36:57.157Z,99193.72
2022-08-19T17:39:25.344Z,99202.53
2022-08-19T17:41:52.081Z,99197.69
2022-08-19T17:44:19.287Z,99188.69
2022-08-19T17:46:46.821Z,99181.19
2022-08-19T17:49:13.855Z,99192.03
2022-08-19T17:51:44.971Z,99200.13
2022-08-19T17:54:15.715Z,99196.72
2022-08-19T17:56:43.240Z,99194.78
2022-08-19T17:59:13.909Z,99197.19
2022-08-19T18:01:51.998Z,99194.97
2022-08-19T18:04:20.799Z,99234.03
2022-08-19T18:06:53.036Z,99309.25
2022-08-19T18:09:23.813Z,99417.22
2022-08-19T18:11:53.055Z,99403.16
2022-08-19T18:14:32.234Z,99413.19
2022-08-19T18:17:05.448Z,99360.47
2022-08-19T18:19:40.823Z,99392.00
2022-08-19T18:22:08.741Z,99432.25
2022-08-19T18:24:39.191Z,99464.56
2022-08-19T18:27:06.993Z,99501.75
2022-08-19T18:29:34.140Z,99529.63
2022-08-19T18:32:00.771Z,99555.03
2022-08-19T18:34:27.595Z,99541.09
2022-08-19T18:36:54.368Z,99561.13
2022-08-19T18:39:39.991Z,99579.25
2022-08-19T18:42:37.191Z,99584.09
2022-08-19T18:45:24.568Z,99565.72
2022-08-19T18:48:25.832Z,99559.69
2022-08-19T18:50:55.554Z,99559.44
2022-08-19T18:53:22.194Z,99540.00
2022-08-19T18:55:51.925Z,99532.91
2022-08-19T18:58:18.595Z,99508.53
2022-08-19T19:00:45.406Z,99495.75
2022-08-19T19:03:12.018Z,99467.31
2022-08-19T19:05:40.006Z,99434.12
2022-08-19T19:08:07.719Z,99404.44
2022-08-19T19:10:36.308Z,99431.16
2022-08-19T19:13:02.941Z,99411.50
2022-08-19T19:15:29.578Z,99432.22
2022-08-19T19:17:56.438Z,99414.25
2022-08-19T19:20:36.673Z,99413.50
2022-08-19T19:23:03.972Z,99449.31
2022-08-19T19:25:50.589Z,99422.13
2022-08-19T19:28:23.914Z,99419.28
2022-08-19T19:30:51.426Z,99393.81
2022-08-19T19:33:18.271Z,99347.81
2022-08-19T19:35:47.285Z,99344.59
2022-08-19T19:38:14.387Z,99311.56
2022-08-19T19:40:41.185Z,99291.63
2022-08-19T19:43:08.347Z,99291.66
2022-08-19T19:45:35.092Z,99299.87
2022-08-19T19:48:01.745Z,99292.72
2022-08-19T19:50:30.224Z,99306.81
2022-08-19T19:52:57.570Z,99297.97
2022-08-19T19:55:26.520Z,99309.41
2022-08-19T19:57:53.895Z,99321.22
2022-08-19T20:00:21.028Z,99320.72
2022-08-19T20:02:50.357Z,99346.28
2022-08-19T20:05:20.860Z,99563.06
2022-08-19T20:08:06.804Z,99567.06
2022-08-19T20:10:33.811Z,99596.31
2022-08-19T20:13:04.621Z,99622.25
2022-08-19T20:15:32.230Z,99647.53
2022-08-19T20:18:04.762Z,99669.22
2022-08-19T20:20:31.861Z,99666.66
2022-08-19T20:22:58.749Z,99665.44
2022-08-19T20:25:25.598Z,99659.34
2022-08-19T20:27:52.362Z,99657.59
2022-08-19T20:30:22.072Z,99669.81
2022-08-19T20:32:50.405Z,99668.56
2022-08-19T20:35:23.090Z,99701.94
2022-08-19T20:37:52.895Z,99704.63
2022-08-19T20:46:03.899Z,99706.81
2022-08-19T20:48:56.576Z,99695.66
2022-08-19T20:51:26.979Z,99704.72
2022-08-19T20:53:53.748Z,99709.09
2022-08-19T20:56:20.725Z,99704.72
2022-08-19T20:59:00.147Z,99690.38
2022-08-19T21:01:26.952Z,99682.88
2022-08-19T21:03:53.641Z,99688.69
2022-08-19T21:06:20.551Z,99686.03
2022-08-19T21:08:49.836Z,99686.47
2022-08-19T21:11:20.743Z,99679.91
2022-08-19T21:13:48.355Z,99647.66
2022-08-19T21:16:14.964Z,99614.19
2022-08-19T21:18:41.789Z,99590.50
2022-08-19T21:21:08.406Z,99531.38
2022-08-19T21:23:35.248Z,99491.03
2022-08-19T21:26:02.124Z,99499.31
2022-08-19T21:28:35.113Z,99509.41
2022-08-19T21:31:05.375Z,99514.09
2022-08-19T21:33:32.982Z,99528.13
2022-08-19T21:36:00.235Z,99517.84
2022-08-19T21:38:27.668Z,99547.34
2022-08-19T21:40:54.837Z,99539.97
2022-08-19T21:43:21.828Z,99506.72
2022-08-19T21:45:50.513Z,99465.94
2022-08-19T21:48:17.601Z,99464.56
2022-08-19T21:50:46.042Z,99451.13
2022-08-19T21:53:17.830Z,99420.00
2022-08-19T21:55:46.620Z,99430.19
2022-08-19T21:58:19.926Z,99427.97
2022-08-19T22:01:12.158Z,99424.75
2022-08-19T22:03:39.979Z,99419.50
2022-08-19T22:06:07.267Z,99412.59
2022-08-19T22:08:33.875Z,99425.31
2022-08-19T22:11:01.341Z,99427.75
2022-08-19T22:13:28.153Z,99394.06
2022-08-19T22:24:35.401Z,99361.13
2022-08-19T22:27:05.823Z,99361.66
2022-08-19T22:29:36.570Z,99373.25
2022-08-19T22:32:27.121Z,99346.13
2022-08-19T22:34:51.822Z,99350.28
2022-08-19T22:37:18.951Z,99355.69
2022-08-19T22:51:14.220Z,99313.75
